createdAt,value
2022-10-09T00:00:25.973Z,8.23
2022-10-09T00:02:52.697Z,4.67
2022-10-09T00:05:20.849Z,5.10
2022-10-09T00:07:47.575Z,5.87
2022-10-09T00:10:14.189Z,4.20
2022-10-09T00:12:40.815Z,6.60
2022-10-09T00:15:07.888Z,5.50
2022-10-09T00:17:34.494Z,7.03
2022-10-09T00:20:01.163Z,6.03
2022-10-09T00:22:28.197Z,6.80
2022-10-09T00:24:54.954Z,6.80
2022-10-09T00:27:23.169Z,7.27
2022-10-09T00:29:50.663Z,5.97
2022-10-09T00:32:17.853Z,5.53
2022-10-09T00:34:44.472Z,4.37
2022-10-09T00:37:11.346Z,7.87
2022-10-09T00:39:37.967Z,7.30
2022-10-09T00:42:05.281Z,7.47
2022-10-09T00:44:47.400Z,5.23
2022-10-09T00:47:44.451Z,6.07
2022-10-09T00:50:24.027Z,4.70
2022-10-09T00:52:59.854Z,4.13
2022-10-09T00:55:28.696Z,3.77
2022-10-09T00:57:57.328Z,5.57
2022-10-09T01:00:24.105Z,6.47
2022-10-09T01:02:51.148Z,4.13
2022-10-09T01:05:18.227Z,5.30
2022-10-09T01:07:47.781Z,4.50
2022-10-09T01:10:33.412Z,7.53
2022-10-09T01:13:11.619Z,8.00
2022-10-09T01:15:47.465Z,8.10
2022-10-09T01:18:17.081Z,5.47
2022-10-09T01:20:55.158Z,5.50
2022-10-09T01:23:36.930Z,4.97
2022-10-09T01:26:15.487Z,7.20
2022-10-09T01:28:50.954Z,4.47
2022-10-09T01:31:19.312Z,5.77
2022-10-09T01:33:47.633Z,8.30
2022-10-09T01:36:15.941Z,5.17
2022-10-09T01:38:44.184Z,4.77
2022-10-09T01:41:11.328Z,6.00
2022-10-09T01:43:37.970Z,3.93
2022-10-09T01:46:18.300Z,4.90
2022-10-09T01:48:47.900Z,4.20
2022-10-09T01:51:18.430Z,4.90
2022-10-09T01:53:47.361Z,3.83
2022-10-09T01:56:20.891Z,6.07
2022-10-09T01:58:57.940Z,4.23
2022-10-09T02:01:28.361Z,5.03
2022-10-09T02:03:57.793Z,3.97
2022-10-09T02:06:27.329Z,3.23
2022-10-09T02:08:55.376Z,3.73
2022-10-09T02:11:26.542Z,4.03
2022-10-09T02:13:55.171Z,4.20
2022-10-09T02:16:38.067Z,3.13
2022-10-09T02:19:08.354Z,2.60
2022-10-09T02:21:50.308Z,3.50
2022-10-09T02:24:21.650Z,2.87
2022-10-09T02:26:48.326Z,2.63
2022-10-09T02:29:15.642Z,3.40
2022-10-09T02:31:43.974Z,5.03
2022-10-09T02:34:15.020Z,3.13
2022-10-09T02:36:41.758Z,4.27
2022-10-09T02:39:08.780Z,4.27
2022-10-09T02:41:35.591Z,3.73
2022-10-09T02:44:03.241Z,2.87
2022-10-09T02:46:29.970Z,3.67
2022-10-09T02:48:56.851Z,2.40
2022-10-09T02:51:24.633Z,4.93
2022-10-09T02:53:55.462Z,2.87
2022-10-09T02:56:23.211Z,2.70
2022-10-09T02:58:50.224Z,2.53
2022-10-09T03:01:16.948Z,4.67
2022-10-09T03:03:44.006Z,4.13
2022-10-09T03:06:13.611Z,2.30
2022-10-09T03:08:42.731Z,2.70
2022-10-09T03:11:10.239Z,5.23
2022-10-09T03:13:39.504Z,2.93
2022-10-09T03:16:08.328Z,2.90
2022-10-09T03:18:35.487Z,3.70
2022-10-09T03:21:06.710Z,2.57
2022-10-09T03:23:33.476Z,3.07
2022-10-09T03:26:03.051Z,2.73
2022-10-09T03:28:30.259Z,2.57
2022-10-09T03:30:57.002Z,2.40
2022-10-09T03:33:23.730Z,3.23
2022-10-09T03:35:50.387Z,2.20
2022-10-09T03:38:17.435Z,2.43
2022-10-09T03:40:44.089Z,2.13
2022-10-09T03:43:10.707Z,3.03
2022-10-09T03:45:41.586Z,2.70
2022-10-09T03:48:09.895Z,3.03
2022-10-09T03:50:37.942Z,2.47
2022-10-09T03:53:05.610Z,2.13
2022-10-09T03:55:32.441Z,5.53
2022-10-09T03:57:59.520Z,2.60
2022-10-09T04:00:26.505Z,2.40
2022-10-09T04:02:53.326Z,3.20
2022-10-09T04:05:20.242Z,2.47
2022-10-09T04:07:46.842Z,2.73
2022-10-09T04:10:13.508Z,3.03
2022-10-09T04:12:40.141Z,2.67
2022-10-09T04:15:07.335Z,2.87
2022-10-09T04:17:33.964Z,2.70
2022-10-09T04:20:00.642Z,2.73
2022-10-09T04:22:27.311Z,3.37
2022-10-09T04:24:53.968Z,2.60
2022-10-09T04:27:20.582Z,2.70
2022-10-09T04:29:47.251Z,2.70
2022-10-09T04:32:13.830Z,2.90
2022-10-09T04:34:40.507Z,3.93
2022-10-09T04:37:07.112Z,4.00
2022-10-09T04:39:33.725Z,5.27
2022-10-09T04:42:00.457Z,3.50
2022-10-09T04:44:27.157Z,4.63
2022-10-09T04:46:53.763Z,3.53
2022-10-09T04:49:20.431Z,4.00
2022-10-09T04:51:47.055Z,2.67
2022-10-09T04:54:13.827Z,4.83
2022-10-09T04:56:40.432Z,3.20
2022-10-09T04:59:07.033Z,2.87
2022-10-09T05:01:38.033Z,3.23
2022-10-09T05:04:05.347Z,3.23
2022-10-09T05:06:32.041Z,3.73
2022-10-09T05:08:58.625Z,4.73
2022-10-09T05:11:25.865Z,2.70
2022-10-09T05:13:54.995Z,2.40
2022-10-09T05:16:29.126Z,3.17
2022-10-09T05:18:57.680Z,4.60
2022-10-09T05:21:25.033Z,3.57
2022-10-09T05:23:54.598Z,2.93
2022-10-09T05:26:23.160Z,2.87
2022-10-09T05:28:50.011Z,4.27
2022-10-09T05:31:23.999Z,4.63
2022-10-09T05:33:51.343Z,2.90
2022-10-09T05:36:18.639Z,6.07
2022-10-09T05:38:45.838Z,4.10
2022-10-09T05:41:14.906Z,4.37
2022-10-09T05:43:43.935Z,5.70
2022-10-09T05:46:24.636Z,5.23
2022-10-09T05:48:56.840Z,4.70
2022-10-09T05:51:26.640Z,4.80
2022-10-09T05:53:54.160Z,4.13
2022-10-09T05:56:22.046Z,4.80
2022-10-09T05:58:56.594Z,4.30
2022-10-09T06:01:25.973Z,6.20
2022-10-09T06:03:54.645Z,4.40
2022-10-09T06:06:23.907Z,3.97
2022-10-09T06:08:50.875Z,5.40
2022-10-09T06:11:31.477Z,4.80
2022-10-09T06:14:03.268Z,4.33
2022-10-09T06:16:32.026Z,4.70
2022-10-09T06:18:59.476Z,3.70
2022-10-09T06:21:27.026Z,6.03
2022-10-09T06:23:56.319Z,4.37
2022-10-09T06:26:24.113Z,5.77
2022-10-09T06:28:51.745Z,5.23
2022-10-09T06:31:21.295Z,10.93
2022-10-09T06:33:50.440Z,5.80
2022-10-09T06:36:20.496Z,3.67
2022-10-09T06:38:47.716Z,6.63
2022-10-09T06:41:16.868Z,5.47
2022-10-09T06:43:48.079Z,3.53
2022-10-09T06:46:14.827Z,5.53
2022-10-09T06:48:41.511Z,5.37
2022-10-09T06:51:11.815Z,4.13
2022-10-09T06:53:40.655Z,5.27
2022-10-09T06:56:08.751Z,5.30
2022-10-09T06:58:35.742Z,5.27
2022-10-09T07:01:11.333Z,5.90
2022-10-09T07:03:41.363Z,6.80
2022-10-09T07:06:15.550Z,5.90
2022-10-09T07:08:45.008Z,7.60
2022-10-09T07:11:16.568Z,5.90
2022-10-09T07:13:44.089Z,5.27
2022-10-09T07:16:11.675Z,6.63
2022-10-09T07:18:39.049Z,5.87
2022-10-09T07:21:08.282Z,6.77
2022-10-09T07:23:35.896Z,5.40
2022-10-09T07:26:09.205Z,4.00
2022-10-09T07:28:35.923Z,6.77
2022-10-09T07:31:04.113Z,5.57
2022-10-09T07:33:30.960Z,7.17
2022-10-09T07:35:59.879Z,6.10
2022-10-09T07:38:27.071Z,4.87
2022-10-09T07:40:54.386Z,7.77
2022-10-09T07:43:21.657Z,6.30
2022-10-09T07:45:48.401Z,3.53
2022-10-09T07:48:15.091Z,8.43
2022-10-09T07:50:41.706Z,5.27
2022-10-09T07:53:08.781Z,6.00
2022-10-09T07:55:36.332Z,10.00
2022-10-09T07:58:03.227Z,5.90
2022-10-09T08:00:29.845Z,5.50
2022-10-09T08:02:56.561Z,4.70
2022-10-09T08:05:23.255Z,5.50
2022-10-09T08:07:50.286Z,5.53
2022-10-09T08:10:16.952Z,4.63
2022-10-09T08:12:43.548Z,5.67
2022-10-09T08:15:10.356Z,6.20
2022-10-09T08:17:36.984Z,5.63
2022-10-09T08:20:03.845Z,4.23
2022-10-09T08:22:30.477Z,4.80
2022-10-09T08:24:57.192Z,4.50
2022-10-09T08:27:23.873Z,4.00
2022-10-09T08:29:50.650Z,3.97
2022-10-09T08:32:17.360Z,2.90
2022-10-09T08:34:44.010Z,4.70
2022-10-09T08:37:10.633Z,5.73
2022-10-09T08:39:37.260Z,4.07
2022-10-09T08:42:04.569Z,4.40
2022-10-09T08:44:38.474Z,3.40
2022-10-09T08:47:25.144Z,3.93
2022-10-09T08:50:08.904Z,8.93
2022-10-09T08:53:01.640Z,6.13
2022-10-09T08:55:43.297Z,3.77
2022-10-09T08:58:15.633Z,4.37
2022-10-09T09:00:45.021Z,3.03
2022-10-09T09:03:11.612Z,2.30
2022-10-09T09:05:53.019Z,3.30
2022-10-09T09:08:53.442Z,9.00
2022-10-09T09:11:48.753Z,3.40
2022-10-09T09:14:50.076Z,4.67
2022-10-09T09:17:28.396Z,5.43
2022-10-09T09:20:20.208Z,2.10
2022-10-09T09:22:49.412Z,5.70
2022-10-09T09:25:25.674Z,2.10
2022-10-09T09:27:54.556Z,2.90
2022-10-09T09:30:29.189Z,4.13
2022-10-09T09:33:10.760Z,3.10
2022-10-09T09:36:09.100Z,4.40
2022-10-09T09:38:47.260Z,5.43
2022-10-09T09:41:23.660Z,2.60
2022-10-09T09:43:50.459Z,3.43
2022-10-09T09:46:27.201Z,2.93
2022-10-09T09:48:54.361Z,4.70
2022-10-09T09:51:31.197Z,2.47
2022-10-09T09:54:07.502Z,2.40
2022-10-09T09:57:11.183Z,4.37
2022-10-09T09:59:37.839Z,3.40
2022-10-09T10:02:20.183Z,2.23
2022-10-09T10:04:58.260Z,5.57
2022-10-09T10:07:27.984Z,2.17
2022-10-09T10:10:09.306Z,2.33
2022-10-09T10:12:48.242Z,2.80
2022-10-09T10:15:24.239Z,2.53
2022-10-09T10:18:00.834Z,2.20
2022-10-09T10:20:29.497Z,1.07
2022-10-09T10:22:58.028Z,1.70
2022-10-09T10:25:32.836Z,1.93
2022-10-09T10:28:13.280Z,2.70
2022-10-09T10:30:41.660Z,3.20
2022-10-09T10:33:19.211Z,3.37
2022-10-09T10:35:49.129Z,1.23
2022-10-09T10:38:24.462Z,2.27
2022-10-09T10:40:54.378Z,2.70
2022-10-09T10:43:37.262Z,2.43
2022-10-09T10:46:22.447Z,1.70
2022-10-09T10:48:50.133Z,1.70
2022-10-09T10:51:46.400Z,2.77
2022-10-09T10:54:31.613Z,1.73
2022-10-09T10:57:10.293Z,2.50
2022-10-09T10:59:58.037Z,2.37
2022-10-09T11:02:51.958Z,2.43
2022-10-09T11:05:27.505Z,1.83
2022-10-09T11:08:24.574Z,2.60
2022-10-09T11:11:15.862Z,3.10
2022-10-09T11:14:11.505Z,2.33
2022-10-09T11:16:59.755Z,2.47
2022-10-09T11:19:35.019Z,2.57
2022-10-09T11:22:19.120Z,2.23
2022-10-09T11:25:02.982Z,2.00
2022-10-09T11:27:39.094Z,1.60
2022-10-09T11:30:13.960Z,2.13
2022-10-09T11:33:07.205Z,1.47
2022-10-09T11:35:45.083Z,2.67
2022-10-09T11:38:39.966Z,1.60
2022-10-09T11:41:07.685Z,1.40
2022-10-09T11:44:01.743Z,0.93
2022-10-09T11:46:41.515Z,1.37
2022-10-09T11:49:25.224Z,1.27
2022-10-09T11:51:54.971Z,1.40
2022-10-09T11:54:23.517Z,2.27
2022-10-09T11:56:54.501Z,1.57
2022-10-09T11:59:30.764Z,1.90
2022-10-09T12:01:59.808Z,2.67
2022-10-09T12:07:46.820Z,1.47
2022-10-09T12:10:39.430Z,3.67
2022-10-09T12:13:07.822Z,1.77
2022-10-09T12:15:52.487Z,2.37
2022-10-09T12:18:32.334Z,1.20
2022-10-09T12:21:03.893Z,1.20
2022-10-09T12:23:35.302Z,1.27
2022-10-09T12:26:03.713Z,1.23
2022-10-09T12:29:01.911Z,1.63
2022-10-09T12:31:41.348Z,0.80
2022-10-09T12:34:29.182Z,1.20
2022-10-09T12:37:35.032Z,0.70
2022-10-09T12:40:32.519Z,1.30
2022-10-09T12:43:06.308Z,1.33
2022-10-09T12:45:33.840Z,3.43
2022-10-09T12:48:10.353Z,2.20
2022-10-09T12:50:37.436Z,1.70
2022-10-09T12:53:14.120Z,1.77
2022-10-09T12:55:44.756Z,2.20
2022-10-09T12:58:21.224Z,1.37
2022-10-09T13:00:50.034Z,1.57
2022-10-09T13:03:23.810Z,2.50
2022-10-09T13:05:50.780Z,1.00
2022-10-09T13:08:38.304Z,1.80
2022-10-09T13:11:13.522Z,1.73
2022-10-09T13:13:40.767Z,1.73
2022-10-09T13:16:10.523Z,2.03
2022-10-09T13:18:38.215Z,1.60
2022-10-09T13:21:22.333Z,3.87
2022-10-09T13:23:49.241Z,6.67
2022-10-09T13:26:28.082Z,1.17
2022-10-09T13:28:56.744Z,1.53
2022-10-09T13:31:24.093Z,1.90
2022-10-09T13:33:51.164Z,1.20
2022-10-09T13:36:19.679Z,0.90
2022-10-09T13:38:47.528Z,1.23
2022-10-09T13:41:18.146Z,2.13
2022-10-09T13:43:45.144Z,2.40
2022-10-09T13:46:11.859Z,2.00
2022-10-09T13:48:39.449Z,1.10
2022-10-09T13:51:06.544Z,1.73
2022-10-09T13:53:33.427Z,2.57
2022-10-09T13:56:01.238Z,1.40
2022-10-09T13:58:28.357Z,4.40
2022-10-09T14:00:55.039Z,2.10
2022-10-09T14:03:22.075Z,3.40
2022-10-09T14:05:48.733Z,1.53
2022-10-09T14:08:15.407Z,1.20
2022-10-09T14:10:43.270Z,2.53
2022-10-09T14:13:14.474Z,3.97
2022-10-09T14:15:41.899Z,3.93
2022-10-09T14:18:08.845Z,5.03
2022-10-09T14:20:36.370Z,4.57
2022-10-09T14:23:03.305Z,2.57
2022-10-09T14:25:30.739Z,2.20
2022-10-09T14:27:57.689Z,2.27
2022-10-09T14:30:24.306Z,2.97
2022-10-09T14:32:51.298Z,1.97
2022-10-09T14:35:21.412Z,1.87
2022-10-09T14:37:48.549Z,2.20
2022-10-09T14:40:15.237Z,1.30
2022-10-09T14:42:42.074Z,2.50
2022-10-09T14:45:09.608Z,7.37
2022-10-09T14:47:36.292Z,1.77
2022-10-09T14:50:02.987Z,1.63
2022-10-09T14:52:30.323Z,1.50
2022-10-09T14:54:56.934Z,2.17
2022-10-09T14:57:23.600Z,2.03
2022-10-09T14:59:50.294Z,2.40
2022-10-09T15:02:17.717Z,2.47
2022-10-09T15:04:44.406Z,4.57
2022-10-09T15:07:11.032Z,2.40
2022-10-09T15:09:38.189Z,2.73
2022-10-09T15:12:05.029Z,3.10
2022-10-09T15:14:31.676Z,2.43
2022-10-09T15:16:58.333Z,1.63
2022-10-09T15:19:24.981Z,3.10
2022-10-09T15:21:51.632Z,3.40
2022-10-09T15:24:18.381Z,2.90
2022-10-09T15:26:45.086Z,8.10
2022-10-09T15:29:12.090Z,2.03
2022-10-09T15:31:40.711Z,4.50
2022-10-09T15:34:08.553Z,3.43
2022-10-09T15:36:38.300Z,2.60
2022-10-09T15:39:07.336Z,1.87
2022-10-09T15:41:36.862Z,2.77
2022-10-09T15:44:12.515Z,2.13
2022-10-09T15:46:39.187Z,3.47
2022-10-09T15:49:07.909Z,2.53
2022-10-09T15:51:35.023Z,2.70
2022-10-09T15:54:02.214Z,5.87
2022-10-09T15:56:29.922Z,3.67
2022-10-09T15:58:57.820Z,4.67
2022-10-09T16:01:25.014Z,3.80
2022-10-09T16:03:52.032Z,2.83
2022-10-09T16:06:22.279Z,3.50
2022-10-09T16:08:49.423Z,5.37
2022-10-09T16:11:20.392Z,5.60
2022-10-09T16:13:50.200Z,3.30
2022-10-09T16:16:19.586Z,2.23
2022-10-09T16:18:47.537Z,2.20
2022-10-09T16:21:17.867Z,3.13
2022-10-09T16:23:45.379Z,5.07
2022-10-09T16:26:14.928Z,2.57
2022-10-09T16:28:42.015Z,2.47
2022-10-09T16:31:09.543Z,3.40
2022-10-09T16:33:36.559Z,5.13
2022-10-09T16:36:11.478Z,2.47
2022-10-09T16:38:40.335Z,4.73
2022-10-09T16:41:12.541Z,6.13
2022-10-09T16:43:39.447Z,3.13
2022-10-09T16:49:02.123Z,4.73
2022-10-09T16:51:32.075Z,2.83
2022-10-09T16:54:00.944Z,2.57
2022-10-09T16:56:32.853Z,2.67
2022-10-09T16:59:01.533Z,4.07
2022-10-09T17:01:28.552Z,4.97
2022-10-09T17:03:57.206Z,2.63
2022-10-09T17:06:24.763Z,6.30
2022-10-09T17:08:53.375Z,3.57
2022-10-09T17:11:20.827Z,3.53
2022-10-09T17:13:48.070Z,2.60
2022-10-09T17:16:18.758Z,6.10
2022-10-09T17:18:46.976Z,3.17
2022-10-09T17:21:15.156Z,6.57
2022-10-09T17:23:41.945Z,4.73
2022-10-09T17:26:11.758Z,2.80
2022-10-09T17:28:39.175Z,3.70
2022-10-09T17:31:08.819Z,4.23
2022-10-09T17:33:42.696Z,2.57
2022-10-09T17:36:10.076Z,4.80
2022-10-09T17:38:36.914Z,3.10
2022-10-09T17:41:07.987Z,3.73
2022-10-09T17:43:34.691Z,5.37
2022-10-09T17:46:02.232Z,5.97
2022-10-09T17:48:31.154Z,5.27
2022-10-09T17:50:58.575Z,4.73
2022-10-09T17:53:26.442Z,6.93
2022-10-09T17:55:55.521Z,5.30
2022-10-09T17:58:24.267Z,4.23
2022-10-09T18:00:51.642Z,6.27
2022-10-09T18:03:20.293Z,4.13
2022-10-09T18:05:49.087Z,4.27
2022-10-09T18:08:18.099Z,6.23
2022-10-09T18:10:45.352Z,2.40
2022-10-09T18:13:12.133Z,3.53
2022-10-09T18:15:43.927Z,3.70
2022-10-09T18:18:11.465Z,5.33
2022-10-09T18:20:40.392Z,6.27
2022-10-09T18:23:08.373Z,3.23
2022-10-09T18:25:40.161Z,4.27
2022-10-09T18:28:07.063Z,3.63
2022-10-09T18:30:34.166Z,4.07
2022-10-09T18:33:00.898Z,5.63
2022-10-09T18:35:30.317Z,3.10
2022-10-09T18:37:57.079Z,4.60
2022-10-09T18:40:23.835Z,3.77
2022-10-09T18:42:52.140Z,2.70
2022-10-09T18:45:19.854Z,2.80
2022-10-09T18:47:47.103Z,3.77
2022-10-09T18:50:14.955Z,5.97
2022-10-09T18:52:42.982Z,5.23
2022-10-09T18:55:16.740Z,3.10
2022-10-09T18:57:44.876Z,4.50
2022-10-09T19:00:17.142Z,6.43
2022-10-09T19:02:44.032Z,6.53
2022-10-09T19:05:10.892Z,4.17
2022-10-09T19:07:48.771Z,5.87
2022-10-09T19:10:21.844Z,3.20
2022-10-09T19:12:50.069Z,6.00
2022-10-09T19:15:16.931Z,3.70
2022-10-09T19:17:43.738Z,3.70
2022-10-09T19:20:10.563Z,3.83
2022-10-09T19:22:37.330Z,8.17
2022-10-09T19:25:06.967Z,6.00
2022-10-09T19:27:33.839Z,8.10
2022-10-09T19:30:00.747Z,4.83
2022-10-09T19:32:27.547Z,6.13
2022-10-09T19:34:54.435Z,5.03
2022-10-09T19:37:22.824Z,6.37
2022-10-09T19:39:51.717Z,5.10
2022-10-09T19:42:19.196Z,8.30
2022-10-09T19:44:46.714Z,4.73
2022-10-09T19:47:15.796Z,4.37
2022-10-09T19:49:42.683Z,4.50
2022-10-09T19:52:09.558Z,3.83
2022-10-09T19:54:36.374Z,5.20
2022-10-09T19:57:03.490Z,4.47
2022-10-09T19:59:31.242Z,5.07
2022-10-09T20:01:59.301Z,5.00
2022-10-09T20:04:26.006Z,6.27
2022-10-09T20:06:52.708Z,4.90
2022-10-09T20:09:20.872Z,5.60
2022-10-09T20:11:48.419Z,5.27
2022-10-09T20:14:15.535Z,7.03
2022-10-09T20:16:42.363Z,5.10
2022-10-09T20:19:09.182Z,4.70
2022-10-09T20:21:35.996Z,5.63
2022-10-09T20:24:02.763Z,4.60
2022-10-09T20:26:31.533Z,5.17
2022-10-09T20:28:58.824Z,3.57
2022-10-09T20:31:26.949Z,4.30
2022-10-09T20:33:54.840Z,5.60
2022-10-09T20:36:25.162Z,9.60
2022-10-09T20:38:54.811Z,7.67
2022-10-09T20:41:22.582Z,4.80
2022-10-09T20:43:53.445Z,5.67
2022-10-09T20:46:21.313Z,6.47
2022-10-09T20:48:48.607Z,6.27
2022-10-09T20:51:15.521Z,4.67
2022-10-09T20:53:42.285Z,5.60
2022-10-09T20:56:11.944Z,8.53
2022-10-09T20:58:39.600Z,4.77
2022-10-09T21:01:08.166Z,6.70
2022-10-09T21:03:36.581Z,5.83
2022-10-09T21:06:04.743Z,4.87
2022-10-09T21:08:31.922Z,5.37
2022-10-09T21:10:58.887Z,6.40
2022-10-09T21:13:25.780Z,9.43
2022-10-09T21:15:52.495Z,5.37
2022-10-09T21:18:19.632Z,7.20
2022-10-09T21:20:47.536Z,4.83
2022-10-09T21:23:16.289Z,5.87
2022-10-09T21:25:51.340Z,6.73
2022-10-09T21:28:19.485Z,5.00
2022-10-09T21:30:46.280Z,7.33
2022-10-09T21:33:13.256Z,5.83
2022-10-09T21:35:42.193Z,7.07
2022-10-09T21:38:15.339Z,6.57
2022-10-09T21:40:42.345Z,7.63
2022-10-09T21:43:10.454Z,6.63
2022-10-09T21:45:37.994Z,6.53
2022-10-09T21:48:05.433Z,7.20
2022-10-09T21:50:38.793Z,6.90
2022-10-09T21:53:05.561Z,7.80
2022-10-09T21:55:32.335Z,8.43
2022-10-09T21:57:59.039Z,8.40
2022-10-09T22:00:25.820Z,7.10
2022-10-09T22:02:52.888Z,5.40
2022-10-09T22:05:19.768Z,6.93
2022-10-09T22:07:46.502Z,6.43
2022-10-09T22:10:13.542Z,10.80
2022-10-09T22:12:40.213Z,7.57
2022-10-09T22:15:07.234Z,6.80
2022-10-09T22:17:33.887Z,8.77
2022-10-09T22:20:00.542Z,6.10
2022-10-09T22:22:27.270Z,7.47
2022-10-09T22:24:54.041Z,8.87
2022-10-09T22:27:20.883Z,6.83
2022-10-09T22:29:47.574Z,5.93
2022-10-09T22:32:14.310Z,8.50
2022-10-09T22:34:41.058Z,8.77
2022-10-09T22:37:07.751Z,7.07
2022-10-09T22:39:34.682Z,8.07
2022-10-09T22:42:01.314Z,7.87
2022-10-09T22:44:27.958Z,6.23
2022-10-09T22:46:54.602Z,9.20
2022-10-09T22:49:21.226Z,8.93
2022-10-09T22:51:47.867Z,9.63
2022-10-09T22:54:14.730Z,8.37
2022-10-09T22:56:44.073Z,7.37
2022-10-09T22:59:13.390Z,9.57
2022-10-09T23:01:44.524Z,9.37
2022-10-09T23:04:12.790Z,6.80
2022-10-09T23:06:40.482Z,5.87
2022-10-09T23:09:09.506Z,8.13
2022-10-09T23:11:36.157Z,6.40
2022-10-09T23:14:03.386Z,9.40
2022-10-09T23:16:31.345Z,8.57
2022-10-09T23:19:04.127Z,9.60
2022-10-09T23:21:33.110Z,6.17
2022-10-09T23:23:59.948Z,9.53
2022-10-09T23:26:31.571Z,6.17
2022-10-09T23:29:00.803Z,6.17
2022-10-09T23:31:28.512Z,5.57
2022-10-09T23:33:55.806Z,5.83
2022-10-09T23:36:25.099Z,6.53
2022-10-09T23:38:52.120Z,7.10
2022-10-09T23:41:21.821Z,7.60
2022-10-09T23:43:49.321Z,5.53
2022-10-09T23:46:22.174Z,11.57
2022-10-09T23:48:49.787Z,13.37
2022-10-09T23:51:18.432Z,7.50
2022-10-09T23:53:45.136Z,6.77
2022-10-09T23:56:24.328Z,5.87
2022-10-09T23:58:51.693Z,11.43
